createdAt,value
2019-04-30T00:06:39.346Z,96.60
2019-04-30T00:09:28.635Z,96.70
2019-04-30T00:12:18.170Z,96.80
2019-04-30T00:15:11.120Z,97.10
2019-04-30T00:18:01.766Z,97.30
2019-04-30T00:20:49.331Z,97.20
2019-04-30T00:23:38.285Z,97.30
2019-04-30T00:28:55.358Z,97.30
2019-04-30T00:31:44.667Z,97.30
2019-04-30T00:34:39.176Z,97.30
2019-04-30T00:42:24.521Z,97.50
2019-04-30T00:45:10.082Z,97.50
2019-04-30T00:47:59.403Z,97.50
2019-04-30T00:53:16.531Z,97.50
2019-04-30T00:56:05.798Z,97.40
2019-04-30T00:58:57.651Z,97.40
2019-04-30T01:04:26.633Z,97.40
2019-04-30T01:09:39.639Z,97.60
2019-04-30T01:12:34.643Z,97.60
2019-04-30T01:15:22.108Z,97.60
2019-04-30T01:18:11.109Z,97.70
2019-04-30T01:21:03.067Z,97.70
2019-04-30T01:23:54.651Z,97.40
2019-04-30T01:26:44.181Z,97.80
2019-04-30T01:31:59.375Z,97.70
2019-04-30T01:34:52.708Z,97.80
2019-04-30T01:37:39.930Z,97.80
2019-04-30T01:40:31.408Z,97.80
2019-04-30T01:43:13.846Z,97.90
2019-04-30T01:45:56.297Z,98.00
2019-04-30T01:48:50.588Z,97.90
2019-04-30T01:51:38.696Z,98.00
2019-04-30T01:54:29.185Z,98.00
2019-04-30T01:57:13.124Z,97.90
2019-04-30T02:00:11.660Z,97.80
2019-04-30T02:03:01.491Z,97.70
2019-04-30T02:05:44.509Z,97.90
2019-04-30T02:08:27.216Z,97.80
2019-04-30T02:11:09.685Z,97.80
2019-04-30T02:13:52.993Z,97.90
2019-04-30T02:19:02.029Z,97.90
2019-04-30T02:21:51.371Z,97.90
2019-04-30T02:24:40.942Z,97.90
2019-04-30T02:27:23.866Z,97.90
2019-04-30T02:30:05.796Z,97.90
2019-04-30T02:35:25.834Z,97.80
2019-04-30T02:38:24.672Z,97.80
2019-04-30T02:41:15.630Z,98.10
2019-04-30T02:46:44.349Z,98.00
2019-04-30T02:49:34.764Z,98.00
2019-04-30T02:52:26.382Z,97.90
2019-04-30T02:57:41.707Z,98.10
2019-04-30T03:00:32.843Z,97.90
2019-04-30T03:03:25.068Z,98.00
2019-04-30T03:06:13.009Z,98.00
2019-04-30T03:09:02.150Z,98.00
2019-04-30T03:11:51.445Z,97.90
2019-04-30T03:14:41.116Z,97.90
2019-04-30T03:20:32.632Z,97.80
2019-04-30T03:23:15.131Z,97.80
2019-04-30T03:26:04.873Z,97.70
2019-04-30T03:31:22.367Z,97.80
2019-04-30T03:34:17.999Z,97.80
2019-04-30T03:37:02.765Z,97.70
2019-04-30T03:39:51.969Z,97.60
2019-04-30T03:42:41.479Z,97.60
2019-04-30T03:45:31.176Z,97.60
2019-04-30T03:50:53.415Z,97.70
2019-04-30T03:53:39.718Z,97.90
2019-04-30T03:56:29.875Z,97.70
2019-04-30T03:59:20.164Z,97.60
2019-04-30T04:05:10.386Z,97.60
2019-04-30T04:08:01.840Z,97.70
2019-04-30T04:10:54.981Z,97.60
2019-04-30T04:13:40.034Z,97.50
2019-04-30T04:16:21.899Z,97.40
2019-04-30T04:21:39.161Z,97.40
2019-04-30T04:24:30.082Z,97.10
2019-04-30T04:27:19.452Z,97.00
2019-04-30T04:35:01.315Z,97.00
2019-04-30T04:37:50.316Z,96.90
2019-04-30T04:40:40.118Z,96.70
2019-04-30T04:45:55.030Z,96.50
2019-04-30T04:48:44.573Z,96.30
2019-04-30T04:51:38.662Z,96.00
2019-04-30T04:59:17.000Z,95.60
2019-04-30T05:02:09.898Z,95.40
2019-04-30T05:04:59.939Z,94.80
2019-04-30T05:12:41.858Z,94.20
2019-04-30T05:15:31.382Z,94.30
2019-04-30T05:18:22.670Z,94.00
2019-04-30T05:23:36.991Z,93.30
2019-04-30T05:26:28.588Z,93.00
2019-04-30T05:29:19.012Z,92.70
2019-04-30T05:34:35.028Z,92.20
2019-04-30T05:37:24.672Z,91.80
2019-04-30T05:40:14.370Z,91.10
2019-04-30T05:43:03.715Z,91.10
2019-04-30T05:45:52.920Z,90.90
2019-04-30T05:48:43.390Z,90.50
2019-04-30T05:56:24.622Z,89.30
2019-04-30T05:59:15.055Z,88.90
2019-04-30T06:02:04.355Z,87.90
2019-04-30T06:04:53.577Z,88.60
2019-04-30T06:07:43.108Z,88.20
2019-04-30T06:10:40.684Z,88.00
2019-04-30T06:13:32.124Z,88.50
2019-04-30T06:21:13.946Z,85.90
2019-04-30T06:24:03.690Z,86.00
2019-04-30T06:26:53.122Z,84.90
2019-04-30T06:29:42.789Z,84.60
2019-04-30T06:32:32.025Z,82.90
2019-04-30T06:35:23.057Z,82.10
2019-04-30T06:40:39.149Z,82.90
2019-04-30T06:43:22.537Z,81.90
2019-04-30T06:46:05.717Z,81.60
2019-04-30T06:48:50.571Z,80.80
2019-04-30T06:56:32.226Z,79.40
2019-04-30T06:59:21.903Z,78.40
2019-04-30T07:02:11.502Z,76.70
2019-04-30T07:07:37.113Z,76.10
2019-04-30T07:13:04.757Z,76.10
2019-04-30T07:18:20.236Z,73.30
2019-04-30T07:21:09.531Z,70.60
2019-04-30T07:23:59.708Z,69.60
2019-04-30T07:26:49.133Z,69.60
2019-04-30T07:29:39.264Z,69.00
2019-04-30T07:32:29.037Z,67.90
2019-04-30T07:35:19.871Z,67.20
2019-04-30T07:38:09.290Z,66.30
2019-04-30T07:40:59.208Z,65.80
2019-04-30T07:43:41.525Z,63.10
2019-04-30T07:46:35.086Z,60.80
2019-04-30T07:49:21.373Z,61.40
2019-04-30T07:52:12.195Z,60.60
2019-04-30T07:55:02.228Z,58.80
2019-04-30T07:57:52.019Z,58.90
2019-04-30T08:03:10.904Z,57.40
2019-04-30T08:06:02.072Z,55.80
2019-04-30T08:08:56.893Z,56.50
2019-04-30T08:11:43.702Z,54.60
2019-04-30T08:14:33.267Z,54.50
2019-04-30T08:17:22.529Z,53.40
2019-04-30T08:20:12.057Z,54.70
2019-04-30T08:23:13.328Z,53.70
2019-04-30T08:25:52.967Z,53.30
2019-04-30T08:28:44.269Z,53.30
2019-04-30T08:36:25.897Z,51.60
2019-04-30T08:39:15.657Z,53.20
2019-04-30T08:42:04.483Z,52.80
2019-04-30T08:47:21.264Z,52.10
2019-04-30T08:50:11.459Z,50.40
2019-04-30T08:53:00.512Z,51.40
2019-04-30T08:55:30.340Z,50.00
2019-04-30T09:03:11.052Z,47.20
2019-04-30T09:06:02.477Z,47.80
2019-04-30T09:08:51.868Z,47.80
2019-04-30T09:14:08.569Z,47.60
2019-04-30T09:16:59.410Z,46.80
2019-04-30T09:19:49.265Z,48.00
2019-04-30T09:25:04.020Z,47.00
2019-04-30T09:27:53.038Z,48.60
2019-04-30T09:30:42.201Z,47.90
2019-04-30T09:33:31.873Z,47.80
2019-04-30T09:36:21.631Z,45.90
2019-04-30T09:39:11.631Z,46.00
2019-04-30T09:42:00.433Z,46.60
2019-04-30T09:44:49.884Z,46.80
2019-04-30T09:47:41.876Z,44.40
2019-04-30T09:52:55.475Z,45.00
2019-04-30T09:55:45.150Z,46.10
2019-04-30T09:58:34.052Z,44.10
2019-04-30T10:01:22.690Z,44.30
2019-04-30T10:06:45.576Z,45.40
2019-04-30T10:09:35.215Z,45.20
2019-04-30T10:12:24.831Z,45.60
2019-04-30T10:15:14.979Z,44.90
2019-04-30T10:18:04.586Z,44.40
2019-04-30T10:20:58.904Z,42.40
2019-04-30T10:23:49.923Z,44.70
2019-04-30T10:26:39.206Z,46.90
2019-04-30T10:29:28.990Z,46.10
2019-04-30T10:32:18.842Z,43.30
2019-04-30T10:40:00.103Z,45.00
2019-04-30T10:42:49.568Z,44.10
2019-04-30T10:45:39.134Z,42.00
2019-04-30T10:48:28.276Z,41.60
2019-04-30T10:51:18.911Z,42.90
2019-04-30T10:54:08.900Z,42.60
2019-04-30T10:59:24.031Z,42.70
2019-04-30T11:02:13.908Z,43.40
2019-04-30T11:05:03.367Z,43.00
2019-04-30T11:07:51.960Z,43.10
2019-04-30T11:10:42.913Z,43.30
2019-04-30T11:13:32.340Z,44.30
2019-04-30T11:16:21.893Z,43.60
2019-04-30T11:19:10.856Z,45.00
2019-04-30T11:21:53.637Z,43.50
2019-04-30T11:27:20.197Z,43.00
2019-04-30T11:30:20.203Z,43.90
2019-04-30T11:33:00.609Z,43.90
2019-04-30T11:40:44.795Z,43.40
2019-04-30T11:43:34.598Z,42.60
2019-04-30T11:46:42.528Z,43.80
2019-04-30T11:49:32.677Z,43.90
2019-04-30T11:52:22.028Z,44.90
2019-04-30T11:57:37.202Z,45.40
2019-04-30T12:00:30.466Z,44.00
2019-04-30T12:03:20.039Z,43.90
2019-04-30T12:11:05.394Z,45.50
2019-04-30T12:13:54.958Z,43.60
2019-04-30T12:16:44.308Z,44.70
2019-04-30T12:24:25.799Z,44.70
2019-04-30T12:27:15.450Z,44.40
2019-04-30T12:30:04.797Z,44.20
2019-04-30T12:32:53.544Z,43.20
2019-04-30T12:35:42.403Z,44.10
2019-04-30T12:38:31.959Z,44.30
2019-04-30T12:43:47.308Z,44.10
2019-04-30T12:46:38.633Z,43.10
2019-04-30T12:49:05.527Z,43.30
2019-04-30T12:52:02.496Z,44.00
2019-04-30T12:54:59.142Z,43.20
2019-04-30T12:57:58.802Z,40.90
2019-04-30T13:03:07.515Z,41.80
2019-04-30T13:05:58.412Z,42.30
2019-04-30T13:08:26.628Z,42.20
2019-04-30T13:11:16.609Z,42.60
2019-04-30T13:14:07.017Z,42.20
2019-04-30T13:16:35.153Z,43.00
2019-04-30T13:19:24.879Z,43.20
2019-04-30T13:22:14.704Z,41.90
2019-04-30T13:25:03.959Z,41.60
2019-04-30T13:27:55.572Z,42.30
2019-04-30T13:30:45.649Z,42.20
2019-04-30T13:33:39.604Z,42.30
2019-04-30T13:41:29.733Z,42.40
2019-04-30T13:44:20.237Z,42.50
2019-04-30T13:47:10.949Z,42.70
2019-04-30T13:50:00.711Z,42.80
2019-04-30T13:52:49.855Z,42.30
2019-04-30T13:55:45.610Z,43.00
2019-04-30T13:58:30.638Z,42.30
2019-04-30T14:01:21.414Z,42.60
2019-04-30T14:04:12.447Z,41.30
2019-04-30T14:07:05.680Z,41.80
2019-04-30T14:09:55.095Z,42.80
2019-04-30T14:12:46.245Z,43.20
2019-04-30T14:15:36.288Z,42.40
2019-04-30T14:18:30.618Z,41.30
2019-04-30T14:26:09.792Z,41.60
2019-04-30T14:28:59.536Z,39.30
2019-04-30T14:31:48.846Z,37.80
2019-04-30T14:34:39.507Z,40.00
2019-04-30T14:37:31.857Z,40.40
2019-04-30T14:40:22.543Z,40.40
2019-04-30T14:48:36.220Z,40.90
2019-04-30T14:51:26.777Z,40.10
2019-04-30T14:54:32.232Z,38.90
2019-04-30T14:57:38.345Z,38.10
2019-04-30T15:00:39.585Z,38.80
2019-04-30T15:03:31.519Z,37.80
2019-04-30T15:06:20.167Z,36.50
2019-04-30T15:09:09.749Z,37.90
2019-04-30T15:11:59.335Z,39.10
2019-04-30T15:14:49.303Z,39.10
2019-04-30T15:17:41.221Z,40.10
2019-04-30T15:20:30.859Z,40.60
2019-04-30T15:23:31.267Z,39.50
2019-04-30T15:26:24.480Z,39.70
2019-04-30T15:29:15.896Z,40.10
2019-04-30T15:32:04.484Z,40.20
2019-04-30T15:34:54.233Z,39.70
2019-04-30T15:37:38.519Z,39.70
2019-04-30T15:40:21.238Z,39.80
2019-04-30T15:43:04.886Z,38.40
2019-04-30T15:45:40.317Z,38.60
2019-04-30T15:48:24.838Z,39.80
2019-04-30T15:51:08.990Z,40.50
2019-04-30T15:53:58.041Z,40.50
2019-04-30T15:56:43.714Z,39.70
2019-04-30T15:59:25.305Z,40.10
2019-04-30T16:02:09.577Z,41.40
2019-04-30T16:04:57.448Z,42.20
2019-04-30T16:07:40.755Z,42.40
2019-04-30T16:10:21.511Z,42.00
2019-04-30T16:13:05.952Z,42.90
2019-04-30T16:15:42.466Z,41.80
2019-04-30T16:18:24.679Z,42.40
2019-04-30T16:21:09.193Z,43.30
2019-04-30T16:23:58.504Z,42.90
2019-04-30T16:26:49.007Z,43.30
2019-04-30T16:29:19.460Z,44.30
2019-04-30T16:32:01.728Z,44.70
2019-04-30T16:34:38.953Z,44.40
2019-04-30T16:37:21.934Z,44.40
2019-04-30T16:39:58.065Z,44.70
2019-04-30T16:42:39.852Z,44.50
2019-04-30T16:45:16.144Z,43.30
2019-04-30T16:47:59.600Z,41.60
2019-04-30T16:50:35.484Z,42.10
2019-04-30T16:53:17.468Z,42.30
2019-04-30T16:55:54.090Z,42.00
2019-04-30T16:58:39.000Z,42.70
2019-04-30T17:01:17.016Z,43.30
2019-04-30T17:04:01.619Z,43.60
2019-04-30T17:06:55.929Z,44.00
2019-04-30T17:09:43.383Z,44.60
2019-04-30T17:12:20.788Z,45.30
2019-04-30T17:15:04.751Z,45.10
2019-04-30T17:17:40.793Z,45.30
2019-04-30T17:20:23.384Z,45.50
2019-04-30T17:22:59.946Z,45.70
2019-04-30T17:25:43.035Z,45.80
2019-04-30T17:28:19.179Z,46.40
2019-04-30T17:31:02.521Z,46.50
2019-04-30T17:33:45.413Z,46.70
2019-04-30T17:36:34.890Z,47.40
2019-04-30T17:39:19.145Z,48.10
2019-04-30T17:41:55.909Z,48.40
2019-04-30T17:44:39.784Z,48.90
2019-04-30T17:47:16.191Z,48.40
2019-04-30T17:49:58.884Z,49.60
2019-04-30T17:52:35.451Z,49.10
2019-04-30T17:55:19.362Z,49.40
2019-04-30T17:58:02.263Z,49.70
2019-04-30T18:00:48.651Z,49.80
2019-04-30T18:03:24.724Z,50.70
2019-04-30T18:06:10.664Z,51.10
2019-04-30T18:08:47.448Z,51.20
2019-04-30T18:11:30.527Z,51.60
2019-04-30T18:14:13.213Z,51.10
2019-04-30T18:16:51.030Z,52.10
2019-04-30T18:19:51.355Z,52.10
2019-04-30T18:22:59.288Z,52.00
2019-04-30T18:25:50.587Z,52.80
2019-04-30T18:28:26.576Z,53.00
2019-04-30T18:31:09.853Z,52.90
2019-04-30T18:33:52.003Z,53.20
2019-04-30T18:36:34.639Z,53.70
2019-04-30T18:39:11.118Z,53.80
2019-04-30T18:41:54.552Z,53.40
2019-04-30T18:44:44.650Z,53.50
2019-04-30T18:47:26.943Z,52.90
2019-04-30T18:50:12.602Z,53.30
2019-04-30T18:53:04.460Z,53.10
2019-04-30T18:55:55.144Z,53.40
2019-04-30T18:58:42.935Z,53.30
2019-04-30T19:01:17.997Z,53.70
2019-04-30T19:04:01.610Z,54.90
2019-04-30T19:06:38.694Z,55.70
2019-04-30T19:09:40.165Z,56.00
2019-04-30T19:12:39.034Z,56.50
2019-04-30T19:15:40.919Z,57.30
2019-04-30T19:18:20.218Z,57.30
2019-04-30T19:21:04.660Z,57.20
2019-04-30T19:23:40.561Z,56.90
2019-04-30T19:26:23.786Z,56.50
2019-04-30T19:29:00.180Z,55.70
2019-04-30T19:31:42.683Z,56.60
2019-04-30T19:34:19.545Z,56.10
2019-04-30T19:37:02.387Z,56.50
2019-04-30T19:39:39.249Z,57.60
2019-04-30T19:42:21.963Z,58.60
2019-04-30T19:45:09.401Z,59.40
2019-04-30T19:47:45.646Z,60.50
2019-04-30T19:50:35.523Z,61.10
2019-04-30T19:53:24.171Z,61.40
2019-04-30T19:56:13.767Z,61.80
2019-04-30T19:59:05.665Z,62.80
2019-04-30T20:01:54.731Z,63.40
2019-04-30T20:04:44.756Z,63.40
2019-04-30T20:07:34.477Z,63.90
2019-04-30T20:10:23.810Z,64.40
2019-04-30T20:13:13.146Z,65.00
2019-04-30T20:16:02.664Z,65.30
2019-04-30T20:18:52.202Z,66.30
2019-04-30T20:24:07.723Z,67.60
2019-04-30T20:27:04.978Z,68.30
2019-04-30T20:29:51.722Z,68.60
2019-04-30T20:32:40.318Z,70.00
2019-04-30T20:35:29.912Z,69.50
2019-04-30T20:38:37.725Z,69.80
2019-04-30T20:44:00.570Z,71.90
2019-04-30T20:46:49.489Z,73.00
2019-04-30T20:49:39.189Z,74.20
2019-04-30T20:52:29.021Z,75.30
2019-04-30T20:55:19.182Z,76.80
2019-04-30T20:58:09.475Z,76.90
2019-04-30T21:01:03.549Z,78.00
2019-04-30T21:06:24.543Z,79.30
2019-04-30T21:09:14.632Z,79.80
2019-04-30T21:12:04.184Z,80.10
2019-04-30T21:17:19.530Z,81.00
2019-04-30T21:20:09.692Z,81.10
2019-04-30T21:22:59.655Z,81.40
2019-04-30T21:25:49.478Z,82.30
2019-04-30T21:28:39.346Z,81.80
2019-04-30T21:31:43.228Z,83.30
2019-04-30T21:39:45.699Z,84.20
2019-04-30T21:42:34.431Z,85.10
2019-04-30T21:45:23.903Z,86.50
2019-04-30T21:48:13.205Z,86.50
2019-04-30T21:51:02.532Z,86.60
2019-04-30T21:53:52.134Z,87.90
2019-04-30T21:59:07.272Z,89.30
2019-04-30T22:01:57.289Z,89.40
2019-04-30T22:04:46.119Z,90.00
2019-04-30T22:07:35.182Z,90.00
2019-04-30T22:10:24.007Z,89.90
2019-04-30T22:13:12.769Z,89.60
2019-04-30T22:16:01.713Z,89.90
2019-04-30T22:18:51.300Z,90.00
2019-04-30T22:21:40.623Z,90.00
2019-04-30T22:26:55.893Z,89.90
2019-04-30T22:29:45.012Z,90.10
2019-04-30T22:32:34.862Z,90.60
2019-04-30T22:37:50.647Z,92.60
2019-04-30T22:40:40.406Z,93.20
2019-04-30T22:43:29.015Z,93.30
2019-04-30T22:46:22.309Z,93.60
2019-04-30T22:51:46.613Z,94.00
2019-04-30T22:54:36.403Z,94.20
2019-04-30T22:57:25.911Z,94.20
2019-04-30T23:02:43.360Z,94.10
2019-04-30T23:05:32.246Z,94.10
2019-04-30T23:08:21.296Z,93.80
2019-04-30T23:11:11.098Z,93.50
2019-04-30T23:14:00.553Z,93.50
2019-04-30T23:16:50.204Z,92.70
2019-04-30T23:22:05.084Z,92.70
2019-04-30T23:24:54.220Z,92.90
2019-04-30T23:27:43.125Z,93.30
2019-04-30T23:30:32.076Z,93.10
2019-04-30T23:33:21.538Z,93.20
2019-04-30T23:36:10.918Z,92.60
2019-04-30T23:39:00.376Z,92.50
2019-04-30T23:41:49.643Z,91.90
2019-04-30T23:44:38.820Z,91.70
2019-04-30T23:47:28.088Z,91.50
2019-04-30T23:50:19.078Z,92.10
2019-04-30T23:53:09.012Z,92.20
2019-04-30T23:58:25.136Z,93.00
